createdAt,value
2022-11-22T00:00:30.269Z,6.70
2022-11-22T00:02:57.011Z,6.70
2022-11-22T00:05:23.807Z,6.60
2022-11-22T00:07:50.644Z,6.70
2022-11-22T00:10:18.227Z,6.70
2022-11-22T00:12:45.238Z,6.60
2022-11-22T00:15:12.686Z,6.60
2022-11-22T00:17:39.995Z,6.60
2022-11-22T00:20:08.875Z,6.60
2022-11-22T00:22:39.717Z,6.60
2022-11-22T00:25:10.405Z,6.50
2022-11-22T00:27:37.133Z,6.50
2022-11-22T00:30:04.437Z,6.50
2022-11-22T00:32:31.179Z,6.50
2022-11-22T00:34:57.903Z,6.50
2022-11-22T00:37:24.632Z,6.30
2022-11-22T00:39:51.335Z,6.40
2022-11-22T00:42:18.105Z,6.40
2022-11-22T00:44:44.872Z,6.30
2022-11-22T00:47:11.689Z,6.30
2022-11-22T00:49:38.423Z,6.40
2022-11-22T00:52:05.335Z,6.30
2022-11-22T00:54:32.062Z,6.30
2022-11-22T00:56:58.839Z,6.30
2022-11-22T00:59:25.623Z,6.20
2022-11-22T01:01:52.401Z,6.10
2022-11-22T01:04:19.140Z,6.00
2022-11-22T01:06:45.943Z,6.10
2022-11-22T01:09:18.790Z,6.20
2022-11-22T01:11:45.552Z,6.10
2022-11-22T01:14:12.670Z,6.00
2022-11-22T01:16:39.624Z,6.00
2022-11-22T01:19:06.481Z,6.00
2022-11-22T01:21:33.298Z,6.10
2022-11-22T01:24:00.443Z,6.10
2022-11-22T01:26:27.200Z,6.00
2022-11-22T01:28:54.160Z,6.00
2022-11-22T01:31:20.945Z,6.00
2022-11-22T01:33:47.696Z,6.10
2022-11-22T01:36:14.470Z,6.00
2022-11-22T01:38:41.229Z,6.00
2022-11-22T01:41:08.015Z,5.80
2022-11-22T01:43:34.786Z,5.90
2022-11-22T01:46:07.888Z,6.00
2022-11-22T01:48:46.614Z,6.00
2022-11-22T01:51:21.026Z,5.90
2022-11-22T01:53:48.310Z,5.70
2022-11-22T01:56:19.279Z,5.80
2022-11-22T01:58:51.460Z,5.90
2022-11-22T02:01:18.912Z,5.70
2022-11-22T02:03:49.010Z,5.70
2022-11-22T02:06:16.898Z,5.80
2022-11-22T02:09:03.563Z,5.70
2022-11-22T02:11:34.059Z,5.60
2022-11-22T02:14:02.200Z,5.60
2022-11-22T02:16:29.396Z,5.60
2022-11-22T02:18:56.148Z,5.60
2022-11-22T02:21:22.992Z,5.60
2022-11-22T02:23:52.472Z,5.60
2022-11-22T02:26:19.423Z,5.70
2022-11-22T02:28:46.902Z,5.80
2022-11-22T02:31:33.548Z,5.60
2022-11-22T02:34:01.722Z,5.60
2022-11-22T02:36:30.299Z,5.50
2022-11-22T02:38:57.405Z,5.50
2022-11-22T02:41:24.241Z,5.60
2022-11-22T02:43:51.073Z,5.70
2022-11-22T02:46:20.885Z,5.60
2022-11-22T02:48:48.273Z,5.50
2022-11-22T02:51:17.117Z,5.60
2022-11-22T02:53:44.489Z,5.70
2022-11-22T02:56:11.231Z,5.60
2022-11-22T02:58:38.116Z,5.40
2022-11-22T03:01:05.207Z,5.50
2022-11-22T03:03:32.739Z,5.50
2022-11-22T03:05:59.520Z,5.40
2022-11-22T03:08:26.290Z,5.40
2022-11-22T03:10:53.032Z,5.40
2022-11-22T03:13:19.801Z,5.50
2022-11-22T03:15:49.446Z,5.30
2022-11-22T03:18:16.210Z,5.30
2022-11-22T03:20:42.908Z,5.20
2022-11-22T03:23:09.680Z,5.20
2022-11-22T03:25:39.501Z,5.20
2022-11-22T03:28:06.440Z,5.20
2022-11-22T03:30:33.208Z,5.20
2022-11-22T03:32:59.946Z,5.20
2022-11-22T03:35:26.718Z,5.20
2022-11-22T03:37:53.449Z,5.30
2022-11-22T03:40:21.171Z,5.20
2022-11-22T03:42:48.095Z,5.20
2022-11-22T03:45:14.908Z,5.30
2022-11-22T03:47:41.653Z,5.30
2022-11-22T03:50:08.831Z,5.20
2022-11-22T03:52:35.581Z,5.20
2022-11-22T03:55:02.704Z,5.20
2022-11-22T03:57:29.493Z,5.10
2022-11-22T03:59:56.215Z,5.10
2022-11-22T04:02:22.993Z,5.10
2022-11-22T04:04:49.730Z,5.10
2022-11-22T04:07:16.579Z,5.20
2022-11-22T04:09:43.358Z,5.10
2022-11-22T04:12:10.071Z,5.10
2022-11-22T04:14:55.730Z,5.20
2022-11-22T04:17:40.729Z,5.20
2022-11-22T04:20:37.819Z,5.30
2022-11-22T04:23:05.965Z,5.20
2022-11-22T04:25:34.621Z,5.20
2022-11-22T04:28:01.954Z,5.20
2022-11-22T04:30:48.707Z,5.20
2022-11-22T04:33:16.519Z,5.20
2022-11-22T04:35:44.905Z,5.10
2022-11-22T04:38:15.721Z,5.00
2022-11-22T04:40:43.187Z,5.10
2022-11-22T04:43:34.676Z,5.30
2022-11-22T04:46:02.119Z,5.30
2022-11-22T04:48:28.864Z,5.20
2022-11-22T04:51:14.250Z,5.20
2022-11-22T04:53:41.192Z,5.30
2022-11-22T04:56:07.969Z,5.30
2022-11-22T04:58:34.756Z,5.30
2022-11-22T05:01:01.624Z,5.20
2022-11-22T05:03:28.413Z,5.20
2022-11-22T05:05:55.751Z,5.10
2022-11-22T05:08:22.856Z,5.10
2022-11-22T05:10:59.361Z,5.20
2022-11-22T05:13:29.249Z,5.30
2022-11-22T05:15:56.919Z,5.30
2022-11-22T05:18:24.472Z,5.20
2022-11-22T05:20:51.912Z,5.20
2022-11-22T05:23:38.214Z,5.20
2022-11-22T05:26:05.479Z,5.10
2022-11-22T05:28:34.107Z,5.10
2022-11-22T05:31:10.161Z,5.20
2022-11-22T05:33:42.019Z,5.20
2022-11-22T05:36:09.553Z,5.30
2022-11-22T05:38:37.797Z,5.40
2022-11-22T05:41:06.729Z,5.40
2022-11-22T05:43:33.765Z,5.20
2022-11-22T05:46:09.570Z,5.10
2022-11-22T05:48:38.247Z,5.20
2022-11-22T05:51:06.879Z,5.10
2022-11-22T05:53:34.443Z,5.30
2022-11-22T05:56:11.210Z,5.40
2022-11-22T05:58:38.531Z,5.50
2022-11-22T06:01:12.358Z,5.50
2022-11-22T06:03:39.444Z,5.60
2022-11-22T06:06:07.474Z,5.40
2022-11-22T06:08:37.285Z,5.40
2022-11-22T06:11:09.138Z,5.40
2022-11-22T06:13:37.526Z,5.50
2022-11-22T06:16:05.958Z,5.50
2022-11-22T06:18:33.366Z,5.50
2022-11-22T06:21:02.282Z,5.50
2022-11-22T06:23:29.479Z,5.40
2022-11-22T06:26:02.482Z,5.30
2022-11-22T06:28:30.501Z,5.40
2022-11-22T06:31:20.254Z,5.40
2022-11-22T06:33:47.261Z,5.60
2022-11-22T06:36:19.330Z,5.70
2022-11-22T06:38:46.849Z,5.70
2022-11-22T06:41:19.099Z,5.70
2022-11-22T06:43:49.283Z,5.70
2022-11-22T06:46:21.281Z,5.60
2022-11-22T06:48:48.707Z,5.60
2022-11-22T06:51:18.383Z,5.80
2022-11-22T06:53:47.794Z,6.00
2022-11-22T06:56:19.476Z,5.80
2022-11-22T06:58:48.381Z,5.80
2022-11-22T07:01:21.754Z,5.70
2022-11-22T07:03:48.521Z,5.70
2022-11-22T07:06:17.098Z,5.80
2022-11-22T07:08:44.872Z,5.80
2022-11-22T07:11:20.476Z,5.70
2022-11-22T07:13:48.299Z,5.70
2022-11-22T07:16:17.630Z,5.60
2022-11-22T07:18:44.512Z,5.60
2022-11-22T07:21:22.858Z,5.70
2022-11-22T07:23:51.882Z,5.70
2022-11-22T07:26:20.912Z,5.90
2022-11-22T07:28:49.519Z,5.90
2022-11-22T07:31:18.667Z,5.90
2022-11-22T07:33:46.518Z,5.80
2022-11-22T07:36:18.654Z,5.70
2022-11-22T07:38:45.858Z,5.70
2022-11-22T07:41:13.278Z,5.70
2022-11-22T07:43:40.141Z,5.80
2022-11-22T07:46:21.519Z,5.80
2022-11-22T07:48:49.753Z,5.80
2022-11-22T07:51:16.650Z,5.80
2022-11-22T07:53:43.512Z,5.90
2022-11-22T07:56:10.289Z,5.90
2022-11-22T07:58:37.700Z,5.90
2022-11-22T08:01:06.438Z,5.90
2022-11-22T08:03:33.516Z,5.90
2022-11-22T08:06:01.199Z,5.80
2022-11-22T08:08:28.537Z,5.80
2022-11-22T08:10:55.515Z,5.90
2022-11-22T08:13:23.038Z,5.90
2022-11-22T08:15:51.528Z,6.00
2022-11-22T08:18:21.503Z,6.10
2022-11-22T08:20:48.364Z,6.10
2022-11-22T08:23:15.200Z,6.20
2022-11-22T08:25:42.001Z,6.20
2022-11-22T08:28:08.751Z,6.10
2022-11-22T08:30:35.464Z,6.10
2022-11-22T08:33:02.304Z,6.10
2022-11-22T08:35:29.061Z,6.10
2022-11-22T08:37:57.466Z,6.00
2022-11-22T08:40:24.646Z,6.10
2022-11-22T08:42:54.525Z,6.20
2022-11-22T08:45:21.501Z,6.20
2022-11-22T08:47:49.114Z,6.20
2022-11-22T08:50:18.501Z,6.20
2022-11-22T08:52:45.243Z,6.20
2022-11-22T08:55:12.003Z,6.30
2022-11-22T08:57:38.941Z,6.20
2022-11-22T09:00:07.542Z,6.30
2022-11-22T09:02:34.289Z,6.10
2022-11-22T09:05:01.101Z,6.30
2022-11-22T09:10:16.133Z,6.30
2022-11-22T09:12:46.847Z,6.40
2022-11-22T09:15:14.119Z,6.20
2022-11-22T09:17:40.859Z,6.10
2022-11-22T09:20:08.422Z,6.20
2022-11-22T09:22:35.558Z,6.20
2022-11-22T09:25:02.626Z,6.30
2022-11-22T09:27:30.535Z,6.30
2022-11-22T09:29:57.528Z,6.30
2022-11-22T09:32:28.096Z,6.30
2022-11-22T09:34:58.045Z,6.30
2022-11-22T09:37:24.803Z,6.40
2022-11-22T09:39:51.601Z,6.40
2022-11-22T09:42:56.900Z,6.50
2022-11-22T09:45:52.977Z,6.30
2022-11-22T09:48:44.530Z,6.30
2022-11-22T09:51:20.046Z,6.30
2022-11-22T09:53:55.510Z,6.30
2022-11-22T09:56:25.549Z,6.40
2022-11-22T09:59:01.232Z,6.40
2022-11-22T10:01:35.027Z,6.40
2022-11-22T10:04:11.736Z,6.30
2022-11-22T10:06:48.693Z,6.30
2022-11-22T10:09:55.817Z,6.40
2022-11-22T10:12:37.198Z,6.50
2022-11-22T10:15:57.584Z,6.60
2022-11-22T10:18:34.320Z,6.60
2022-11-22T10:21:01.091Z,6.60
2022-11-22T10:23:28.100Z,6.70
2022-11-22T10:26:05.914Z,6.60
2022-11-22T10:28:46.756Z,6.70
2022-11-22T10:31:32.221Z,6.90
2022-11-22T10:34:07.927Z,6.90
2022-11-22T10:36:57.032Z,7.00
2022-11-22T10:39:54.588Z,7.10
2022-11-22T10:42:56.600Z,7.10
2022-11-22T10:45:34.727Z,7.10
2022-11-22T10:48:13.302Z,7.20
2022-11-22T10:50:42.582Z,7.30
2022-11-22T10:53:37.086Z,7.20
2022-11-22T10:56:14.506Z,7.20
2022-11-22T10:58:59.732Z,7.40
2022-11-22T11:01:48.381Z,7.30
2022-11-22T11:04:17.125Z,7.20
2022-11-22T11:10:11.606Z,7.20
2022-11-22T11:12:55.832Z,7.10
2022-11-22T11:15:41.803Z,7.20
2022-11-22T11:18:31.463Z,7.10
2022-11-22T11:20:58.333Z,7.10
2022-11-22T11:23:25.086Z,7.10
2022-11-22T11:25:52.537Z,7.00
2022-11-22T11:28:21.464Z,6.90
2022-11-22T11:31:06.908Z,7.10
2022-11-22T11:33:38.359Z,7.30
2022-11-22T11:36:22.511Z,7.20
2022-11-22T11:38:56.028Z,7.10
2022-11-22T11:41:30.102Z,7.00
2022-11-22T11:43:58.220Z,7.00
2022-11-22T11:46:26.958Z,7.00
2022-11-22T11:49:14.518Z,7.10
2022-11-22T11:51:46.733Z,7.10
2022-11-22T11:54:13.497Z,7.10
2022-11-22T11:56:59.291Z,7.10
2022-11-22T11:59:44.989Z,7.00
2022-11-22T12:02:25.601Z,7.10
2022-11-22T12:04:59.405Z,7.10
2022-11-22T12:07:40.744Z,7.30
2022-11-22T12:10:28.330Z,7.40
2022-11-22T12:13:10.986Z,7.40
2022-11-22T12:15:49.740Z,7.40
2022-11-22T12:18:53.830Z,7.60
2022-11-22T12:21:33.507Z,7.70
2022-11-22T12:27:13.286Z,7.50
2022-11-22T12:29:44.576Z,7.50
2022-11-22T12:32:31.504Z,7.60
2022-11-22T12:35:16.386Z,7.80
2022-11-22T12:38:04.528Z,7.80
2022-11-22T12:40:44.182Z,8.00
2022-11-22T12:43:21.876Z,7.80
2022-11-22T12:45:58.151Z,7.70
2022-11-22T12:48:23.992Z,7.60
2022-11-22T12:48:45.777Z,7.70
2022-11-22T12:51:23.675Z,7.80
2022-11-22T12:53:52.534Z,8.00
2022-11-22T12:56:44.399Z,7.90
2022-11-22T12:59:13.419Z,7.70
2022-11-22T13:01:40.201Z,7.70
2022-11-22T13:04:09.827Z,7.70
2022-11-22T13:06:57.521Z,7.60
2022-11-22T13:09:34.897Z,7.60
2022-11-22T13:12:15.522Z,7.50
2022-11-22T13:14:56.298Z,7.60
2022-11-22T13:17:36.144Z,7.60
2022-11-22T13:20:08.412Z,7.70
2022-11-22T13:23:08.512Z,7.80
2022-11-22T13:26:14.999Z,7.80
2022-11-22T13:28:44.531Z,7.80
2022-11-22T13:31:11.560Z,7.80
2022-11-22T13:33:54.651Z,8.00
2022-11-22T13:36:27.224Z,7.90
2022-11-22T13:39:01.198Z,8.00
2022-11-22T13:41:30.142Z,8.10
2022-11-22T13:43:59.541Z,8.10
2022-11-22T13:46:54.123Z,8.10
2022-11-22T13:49:36.452Z,8.20
2022-11-22T13:52:25.877Z,8.20
2022-11-22T13:54:58.620Z,8.20
2022-11-22T13:57:31.180Z,8.10
2022-11-22T14:00:13.181Z,8.20
2022-11-22T14:02:54.876Z,8.30
2022-11-22T14:05:46.103Z,8.30
2022-11-22T14:08:40.323Z,8.30
2022-11-22T14:11:25.116Z,8.40
2022-11-22T14:14:15.214Z,8.40
2022-11-22T14:16:48.776Z,8.40
2022-11-22T14:19:27.992Z,8.40
2022-11-22T14:22:07.523Z,8.50
2022-11-22T14:25:01.588Z,8.50
2022-11-22T14:27:43.684Z,8.60
2022-11-22T14:30:17.515Z,8.50
2022-11-22T14:32:46.981Z,8.50
2022-11-22T14:35:29.587Z,8.50
2022-11-22T14:38:01.234Z,8.60
2022-11-22T14:40:31.060Z,8.60
2022-11-22T14:43:00.719Z,8.60
2022-11-22T14:45:43.505Z,8.50
2022-11-22T14:48:20.512Z,8.50
2022-11-22T14:51:01.816Z,8.60
2022-11-22T14:53:44.007Z,8.50
2022-11-22T14:56:23.493Z,8.60
2022-11-22T14:59:20.009Z,8.60
2022-11-22T15:02:34.526Z,8.50
2022-11-22T15:09:12.532Z,8.50
2022-11-22T15:09:16.795Z,8.50
2022-11-22T15:12:23.495Z,8.50
2022-11-22T15:59:34.451Z,8.20
2022-11-22T16:02:02.083Z,8.30
2022-11-22T16:04:35.641Z,8.30
2022-11-22T16:07:04.169Z,8.20
2022-11-22T16:09:34.770Z,8.20
2022-11-22T16:12:25.122Z,8.20
2022-11-22T16:14:52.958Z,8.20
2022-11-22T16:17:30.351Z,8.30
2022-11-22T16:20:33.775Z,8.40
2022-11-22T16:23:27.308Z,8.40
2022-11-22T16:26:00.133Z,8.40
2022-11-22T16:28:35.883Z,8.40
2022-11-22T16:31:16.568Z,8.40
2022-11-22T16:33:44.617Z,8.40
2022-11-22T16:36:14.280Z,8.40
2022-11-22T16:38:41.824Z,8.40
2022-11-22T16:41:19.183Z,8.50
2022-11-22T16:43:46.398Z,8.40
2022-11-22T16:46:14.168Z,8.50
2022-11-22T16:48:42.531Z,8.50
2022-11-22T16:51:22.571Z,8.50
2022-11-22T16:53:50.594Z,8.50
2022-11-22T16:56:25.926Z,8.40
2022-11-22T16:58:55.126Z,8.60
2022-11-22T17:01:24.589Z,8.60
2022-11-22T17:03:55.134Z,8.60
2022-11-22T17:06:24.872Z,8.60
2022-11-22T17:08:54.493Z,8.60
2022-11-22T17:11:24.818Z,8.60
2022-11-22T17:13:52.401Z,8.60
2022-11-22T17:16:19.487Z,8.70
2022-11-22T17:18:47.696Z,8.80
2022-11-22T17:21:31.563Z,8.70
2022-11-22T17:24:05.170Z,8.80
2022-11-22T17:26:32.780Z,8.90
2022-11-22T17:28:59.540Z,8.90
2022-11-22T17:31:28.226Z,8.90
2022-11-22T17:33:57.939Z,9.00
2022-11-22T17:36:24.644Z,9.00
2022-11-22T17:38:51.357Z,9.00
2022-11-22T17:41:18.576Z,8.90
2022-11-22T17:43:45.499Z,8.90
2022-11-22T17:46:12.544Z,9.00
2022-11-22T17:48:39.390Z,8.90
2022-11-22T17:51:10.229Z,8.90
2022-11-22T17:53:37.264Z,8.80
2022-11-22T17:56:12.047Z,8.80
2022-11-22T17:58:40.274Z,8.80
2022-11-22T18:01:15.584Z,8.80
2022-11-22T18:03:43.293Z,8.80
2022-11-22T18:06:11.460Z,8.80
2022-11-22T18:08:41.373Z,8.80
2022-11-22T18:11:12.093Z,8.60
2022-11-22T18:13:40.121Z,8.50
2022-11-22T18:16:09.508Z,8.50
2022-11-22T18:18:56.378Z,8.50
2022-11-22T18:21:24.673Z,8.50
2022-11-22T18:23:51.512Z,8.70
2022-11-22T18:31:53.149Z,8.50
2022-11-22T18:34:21.175Z,8.60
2022-11-22T18:37:04.324Z,8.50
2022-11-22T18:39:35.631Z,8.40
2022-11-22T18:42:04.413Z,8.50
2022-11-22T18:44:31.232Z,8.60
2022-11-22T18:46:58.691Z,8.50
2022-11-22T18:49:25.443Z,8.40
2022-11-22T18:51:52.451Z,8.30
2022-11-22T18:54:20.155Z,8.30
2022-11-22T18:56:46.903Z,8.30
2022-11-22T18:59:13.722Z,8.30
2022-11-22T19:01:41.007Z,8.30
2022-11-22T19:04:09.502Z,8.40
2022-11-22T19:06:36.303Z,8.30
2022-11-22T19:09:03.540Z,8.40
2022-11-22T19:11:32.236Z,8.30
2022-11-22T19:13:59.405Z,8.20
2022-11-22T19:16:29.577Z,8.10
2022-11-22T19:18:57.499Z,8.20
2022-11-22T19:21:26.954Z,8.30
2022-11-22T19:23:54.652Z,8.30
2022-11-22T19:26:23.421Z,8.20
2022-11-22T19:28:56.741Z,8.10
2022-11-22T19:31:29.129Z,8.20
2022-11-22T19:33:56.246Z,8.20
2022-11-22T19:36:32.171Z,8.10
2022-11-22T19:39:00.445Z,8.20
2022-11-22T19:41:27.387Z,8.30
2022-11-22T19:43:56.362Z,8.20
2022-11-22T19:46:24.274Z,8.30
2022-11-22T19:48:58.859Z,8.20
2022-11-22T19:51:27.742Z,8.10
2022-11-22T19:53:59.591Z,8.10
2022-11-22T19:56:30.265Z,8.20
2022-11-22T19:58:58.473Z,8.10
2022-11-22T20:01:27.934Z,8.10
2022-11-22T20:03:57.976Z,8.10
2022-11-22T20:06:25.369Z,8.20
2022-11-22T20:08:52.249Z,8.20
2022-11-22T20:11:21.103Z,8.20
2022-11-22T20:13:50.587Z,8.30
2022-11-22T20:16:25.974Z,8.20
2022-11-22T20:18:54.317Z,8.20
2022-11-22T20:21:22.555Z,8.20
2022-11-22T20:23:53.247Z,8.10
2022-11-22T20:26:21.518Z,8.10
2022-11-22T20:28:53.755Z,8.10
2022-11-22T20:31:21.401Z,8.20
2022-11-22T20:33:50.379Z,8.10
2022-11-22T20:36:19.471Z,8.10
2022-11-22T20:38:46.911Z,8.20
2022-11-22T20:41:15.726Z,8.20
2022-11-22T20:43:43.101Z,8.30
2022-11-22T20:46:12.251Z,8.20
2022-11-22T20:48:40.459Z,8.40
2022-11-22T20:51:10.844Z,8.30
2022-11-22T20:53:38.044Z,8.20
2022-11-22T20:56:05.682Z,8.20
2022-11-22T20:58:32.758Z,8.20
2022-11-22T21:00:59.980Z,8.20
2022-11-22T21:03:28.156Z,8.30
2022-11-22T21:05:55.939Z,8.30
2022-11-22T21:08:23.497Z,8.30
2022-11-22T21:10:50.213Z,8.30
2022-11-22T21:13:17.306Z,8.40
2022-11-22T21:15:44.195Z,8.40
2022-11-22T21:18:25.221Z,8.40
2022-11-22T21:20:52.719Z,8.40
2022-11-22T21:23:19.565Z,8.40
2022-11-22T21:25:46.632Z,8.40
2022-11-22T21:28:13.379Z,8.40
2022-11-22T21:30:40.237Z,8.40
2022-11-22T21:33:06.953Z,8.40
2022-11-22T21:35:33.717Z,8.40
2022-11-22T21:38:00.430Z,8.40
2022-11-22T21:40:27.169Z,8.40
2022-11-22T21:42:53.908Z,8.40
2022-11-22T21:45:20.641Z,8.50
2022-11-22T21:47:49.709Z,8.50
2022-11-22T21:50:16.896Z,8.40
2022-11-22T21:52:43.636Z,8.30
2022-11-22T21:55:11.577Z,8.40
2022-11-22T21:57:38.397Z,8.50
2022-11-22T22:00:06.063Z,8.50
2022-11-22T22:02:33.197Z,8.50
2022-11-22T22:04:59.945Z,8.40
2022-11-22T22:07:51.366Z,8.50
2022-11-22T22:10:14.983Z,8.50
2022-11-22T22:12:41.717Z,8.60
2022-11-22T22:15:11.430Z,8.50
2022-11-22T22:17:38.259Z,8.50
2022-11-22T22:20:05.674Z,8.40
2022-11-22T22:22:35.881Z,8.40
2022-11-22T22:25:03.359Z,8.50
2022-11-22T22:27:33.666Z,8.40
2022-11-22T22:30:00.723Z,8.40
2022-11-22T22:32:27.669Z,8.50
2022-11-22T22:34:54.449Z,8.40
2022-11-22T22:37:21.279Z,8.50
2022-11-22T22:39:48.072Z,8.50
2022-11-22T22:42:15.230Z,8.60
2022-11-22T22:44:42.064Z,8.70
2022-11-22T22:47:08.978Z,8.70
2022-11-22T22:49:35.736Z,8.50
2022-11-22T22:52:02.957Z,8.50
2022-11-22T22:54:29.766Z,8.50
2022-11-22T22:56:56.554Z,8.50
2022-11-22T22:59:23.427Z,8.50
2022-11-22T23:01:50.239Z,8.50
2022-11-22T23:04:16.983Z,8.60
2022-11-22T23:06:43.724Z,8.60
2022-11-22T23:09:12.087Z,8.60
2022-11-22T23:11:57.763Z,8.70
2022-11-22T23:14:27.837Z,8.60
2022-11-22T23:16:58.075Z,8.70
2022-11-22T23:19:26.331Z,8.70
2022-11-22T23:21:53.364Z,8.70
2022-11-22T23:24:20.319Z,8.70
2022-11-22T23:26:47.687Z,8.70
2022-11-22T23:29:14.745Z,8.80
2022-11-22T23:31:41.524Z,8.70
2022-11-22T23:34:11.119Z,8.60
2022-11-22T23:36:40.996Z,8.60
2022-11-22T23:39:09.083Z,8.70
2022-11-22T23:41:35.953Z,8.70
2022-11-22T23:44:02.830Z,8.70
2022-11-22T23:46:29.764Z,8.80
2022-11-22T23:48:59.064Z,8.80
2022-11-22T23:51:27.551Z,8.70
2022-11-22T23:53:59.282Z,8.70
2022-11-22T23:56:27.571Z,8.70
2022-11-22T23:58:54.664Z,8.90
